sensor_id;sensor_type;location;lat;lon;timestamp;pressure;altitude;pressure_sealevel;temperature;humidity
70968;BME280;58629;48.808;8.820;2023-01-08T00:00:52;96588.91;;;4.97;91.94
70968;BME280;58629;48.808;8.820;2023-01-08T00:03:17;96577.31;;;4.91;91.96
70968;BME280;58629;48.808;8.820;2023-01-08T00:05:42;96574.31;;;4.89;92.22
70968;BME280;58629;48.808;8.820;2023-01-08T00:08:08;96578.84;;;4.85;92.57
70968;BME280;58629;48.808;8.820;2023-01-08T00:10:35;96581.06;;;4.86;92.80
70968;BME280;58629;48.808;8.820;2023-01-08T00:13:00;96579.56;;;4.92;92.53
70968;BME280;58629;48.808;8.820;2023-01-08T00:15:26;96582.16;;;4.96;92.48
70968;BME280;58629;48.808;8.820;2023-01-08T00:17:52;96567.53;;;4.98;92.76
70968;BME280;58629;48.808;8.820;2023-01-08T00:20:17;96575.38;;;5.02;92.72
70968;BME280;58629;48.808;8.820;2023-01-08T00:22:42;96563.38;;;5.04;92.46
70968;BME280;58629;48.808;8.820;2023-01-08T00:25:08;96552.03;;;5.21;91.23
70968;BME280;58629;48.808;8.820;2023-01-08T00:27:33;96538.16;;;5.24;91.27
70968;BME280;58629;48.808;8.820;2023-01-08T00:29:59;96533.25;;;5.23;91.38
70968;BME280;58629;48.808;8.820;2023-01-08T00:32:24;96534.00;;;5.23;91.50
70968;BME280;58629;48.808;8.820;2023-01-08T00:34:49;96525.75;;;5.25;91.69
70968;BME280;58629;48.808;8.820;2023-01-08T00:37:15;96525.78;;;5.21;91.54
70968;BME280;58629;48.808;8.820;2023-01-08T00:39:43;96527.69;;;5.14;91.59
70968;BME280;58629;48.808;8.820;2023-01-08T00:42:08;96536.34;;;5.07;91.85
70968;BME280;58629;48.808;8.820;2023-01-08T00:44:33;96535.63;;;5.07;92.01
70968;BME280;58629;48.808;8.820;2023-01-08T00:46:59;96539.75;;;5.04;92.14
70968;BME280;58629;48.808;8.820;2023-01-08T00:49:24;96537.88;;;5.01;92.09
70968;BME280;58629;48.808;8.820;2023-01-08T00:51:49;96537.91;;;4.98;92.33
70968;BME280;58629;48.808;8.820;2023-01-08T00:54:14;96527.06;;;4.96;92.27
70968;BME280;58629;48.808;8.820;2023-01-08T00:56:40;96523.59;;;5.13;91.21
70968;BME280;58629;48.808;8.820;2023-01-08T00:59:05;96510.09;;;5.14;90.93
70968;BME280;58629;48.808;8.820;2023-01-08T01:01:30;96527.00;;;5.06;91.78
70968;BME280;58629;48.808;8.820;2023-01-08T01:03:56;96531.53;;;5.02;91.85
70968;BME280;58629;48.808;8.820;2023-01-08T01:06:21;96516.91;;;5.01;91.77
70968;BME280;58629;48.808;8.820;2023-01-08T01:08:46;96518.03;;;5.00;91.55
70968;BME280;58629;48.808;8.820;2023-01-08T01:11:21;96514.66;;;5.00;91.78
70968;BME280;58629;48.808;8.820;2023-01-08T01:13:47;96521.41;;;4.97;91.88
70968;BME280;58629;48.808;8.820;2023-01-08T01:16:13;96514.72;;;4.93;91.67
70968;BME280;58629;48.808;8.820;2023-01-08T01:18:38;96500.47;;;4.94;92.23
70968;BME280;58629;48.808;8.820;2023-01-08T01:21:29;96490.34;;;4.92;91.99
70968;BME280;58629;48.808;8.820;2023-01-08T01:24:00;96501.97;;;4.95;92.06
70968;BME280;58629;48.808;8.820;2023-01-08T01:26:26;96508.69;;;4.96;91.85
70968;BME280;58629;48.808;8.820;2023-01-08T01:28:53;96509.44;;;4.96;91.95
70968;BME280;58629;48.808;8.820;2023-01-08T01:31:20;96511.69;;;4.98;91.47
70968;BME280;58629;48.808;8.820;2023-01-08T01:33:46;96512.03;;;5.00;92.01
70968;BME280;58629;48.808;8.820;2023-01-08T01:36:12;96509.78;;;5.02;92.03
70968;BME280;58629;48.808;8.820;2023-01-08T01:38:41;96507.91;;;5.02;91.87
70968;BME280;58629;48.808;8.820;2023-01-08T01:41:12;96516.16;;;5.01;92.19
70968;BME280;58629;48.808;8.820;2023-01-08T01:43:42;96510.94;;;5.01;91.95
70968;BME280;58629;48.808;8.820;2023-01-08T01:46:23;96505.69;;;5.01;92.03
70968;BME280;58629;48.808;8.820;2023-01-08T01:48:55;96505.66;;;5.04;91.56
70968;BME280;58629;48.808;8.820;2023-01-08T01:51:24;96504.16;;;5.07;91.50
70968;BME280;58629;48.808;8.820;2023-01-08T01:53:53;96499.25;;;5.09;91.84
70968;BME280;58629;48.808;8.820;2023-01-08T01:56:18;96508.25;;;5.08;92.27
70968;BME280;58629;48.808;8.820;2023-01-08T01:58:44;96510.88;;;5.08;92.34
70968;BME280;58629;48.808;8.820;2023-01-08T02:01:09;96499.97;;;5.09;92.09
70968;BME280;58629;48.808;8.820;2023-01-08T02:03:37;96498.47;;;5.12;92.04
70968;BME280;58629;48.808;8.820;2023-01-08T02:08:55;96492.47;;;5.15;92.24
70968;BME280;58629;48.808;8.820;2023-01-08T02:11:48;96493.94;;;5.16;91.93
70968;BME280;58629;48.808;8.820;2023-01-08T02:14:41;96478.16;;;5.19;92.33
70968;BME280;58629;48.808;8.820;2023-01-08T02:17:15;96471.03;;;5.20;91.80
70968;BME280;58629;48.808;8.820;2023-01-08T02:19:48;96481.16;;;5.21;91.90
70968;BME280;58629;48.808;8.820;2023-01-08T02:22:40;96478.09;;;5.30;91.45
70968;BME280;58629;48.808;8.820;2023-01-08T02:25:19;96475.44;;;5.34;90.49
70968;BME280;58629;48.808;8.820;2023-01-08T02:27:47;96472.06;;;5.33;90.36
70968;BME280;58629;48.808;8.820;2023-01-08T02:30:15;96473.97;;;5.33;90.33
70968;BME280;58629;48.808;8.820;2023-01-08T02:32:41;96469.06;;;5.35;90.80
70968;BME280;58629;48.808;8.820;2023-01-08T02:35:08;96468.31;;;5.34;90.61
70968;BME280;58629;48.808;8.820;2023-01-08T02:37:35;96471.31;;;5.36;90.76
70968;BME280;58629;48.808;8.820;2023-01-08T02:40:06;96455.16;;;5.38;90.65
70968;BME280;58629;48.808;8.820;2023-01-08T02:43:25;96455.91;;;5.38;90.98
70968;BME280;58629;48.808;8.820;2023-01-08T02:45:45;96461.16;;;5.38;90.46
70968;BME280;58629;48.808;8.820;2023-01-08T02:48:12;96456.66;;;5.39;90.73
70968;BME280;58629;48.808;8.820;2023-01-08T02:50:58;96457.75;;;5.41;90.32
70968;BME280;58629;48.808;8.820;2023-01-08T02:53:27;96449.88;;;5.41;90.05
70968;BME280;58629;48.808;8.820;2023-01-08T02:55:57;96436.75;;;5.41;90.63
70968;BME280;58629;48.808;8.820;2023-01-08T02:58:25;96433.03;;;5.39;90.64
70968;BME280;58629;48.808;8.820;2023-01-08T03:00:53;96436.03;;;5.37;90.87
70968;BME280;58629;48.808;8.820;2023-01-08T03:03:23;96424.41;;;5.38;91.34
70968;BME280;58629;48.808;8.820;2023-01-08T03:05:51;96423.25;;;5.39;91.32
70968;BME280;58629;48.808;8.820;2023-01-08T03:08:18;96419.13;;;5.42;91.06
70968;BME280;58629;48.808;8.820;2023-01-08T03:10:48;96418.00;;;5.43;90.83
70968;BME280;58629;48.808;8.820;2023-01-08T03:13:20;96412.75;;;5.43;90.62
70968;BME280;58629;48.808;8.820;2023-01-08T03:15:54;96408.56;;;5.45;90.03
70968;BME280;58629;48.808;8.820;2023-01-08T03:18:34;96413.09;;;5.45;90.46
70968;BME280;58629;48.808;8.820;2023-01-08T03:21:02;96403.41;;;5.38;90.19
70968;BME280;58629;48.808;8.820;2023-01-08T03:23:31;96409.41;;;5.39;90.33
70968;BME280;58629;48.808;8.820;2023-01-08T03:25:59;96399.25;;;5.41;90.73
70968;BME280;58629;48.808;8.820;2023-01-08T03:28:28;96386.84;;;5.41;90.39
70968;BME280;58629;48.808;8.820;2023-01-08T03:30:56;96387.22;;;5.43;90.13
70968;BME280;58629;48.808;8.820;2023-01-08T03:33:23;96380.09;;;5.44;90.41
70968;BME280;58629;48.808;8.820;2023-01-08T03:35:50;96379.34;;;5.43;90.31
70968;BME280;58629;48.808;8.820;2023-01-08T03:38:26;96381.25;;;5.43;90.07
70968;BME280;58629;48.808;8.820;2023-01-08T03:40:58;96374.88;;;5.40;90.02
70968;BME280;58629;48.808;8.820;2023-01-08T03:43:25;96381.25;;;5.39;89.81
70968;BME280;58629;48.808;8.820;2023-01-08T03:45:54;96377.41;;;5.47;89.52
70968;BME280;58629;48.808;8.820;2023-01-08T03:48:20;96371.78;;;5.49;89.61
70968;BME280;58629;48.808;8.820;2023-01-08T03:50:47;96366.53;;;5.49;89.30
70968;BME280;58629;48.808;8.820;2023-01-08T03:53:12;96377.78;;;5.49;90.07
70968;BME280;58629;48.808;8.820;2023-01-08T03:55:38;96374.75;;;5.51;90.02
70968;BME280;58629;48.808;8.820;2023-01-08T03:58:03;96374.75;;;5.51;89.91
70968;BME280;58629;48.808;8.820;2023-01-08T04:00:28;96374.38;;;5.52;89.76
70968;BME280;58629;48.808;8.820;2023-01-08T04:02:54;96381.13;;;5.53;89.96
70968;BME280;58629;48.808;8.820;2023-01-08T04:05:19;96375.84;;;5.53;89.54
70968;BME280;58629;48.808;8.820;2023-01-08T04:07:44;96365.72;;;5.55;89.69
70968;BME280;58629;48.808;8.820;2023-01-08T04:10:09;96375.81;;;5.57;89.89
70968;BME280;58629;48.808;8.820;2023-01-08T04:12:35;96372.13;;;5.54;90.17
70968;BME280;58629;48.808;8.820;2023-01-08T04:15:00;96373.19;;;5.57;90.00
70968;BME280;58629;48.808;8.820;2023-01-08T04:17:25;96371.75;;;5.52;90.48
70968;BME280;58629;48.808;8.820;2023-01-08T04:19:51;96370.97;;;5.55;90.15
70968;BME280;58629;48.808;8.820;2023-01-08T04:22:16;96375.47;;;5.55;89.70
70968;BME280;58629;48.808;8.820;2023-01-08T04:24:41;96376.22;;;5.55;90.21
70968;BME280;58629;48.808;8.820;2023-01-08T04:27:06;96377.31;;;5.58;89.54
70968;BME280;58629;48.808;8.820;2023-01-08T04:29:32;96382.56;;;5.58;88.95
70968;BME280;58629;48.808;8.820;2023-01-08T04:31:57;96384.03;;;5.62;89.00
70968;BME280;58629;48.808;8.820;2023-01-08T04:34:22;96387.03;;;5.64;89.20
70968;BME280;58629;48.808;8.820;2023-01-08T04:36:47;96385.13;;;5.65;88.76
70968;BME280;58629;48.808;8.820;2023-01-08T04:39:13;96388.44;;;5.69;88.45
70968;BME280;58629;48.808;8.820;2023-01-08T04:41:38;96383.56;;;5.71;88.14
70968;BME280;58629;48.808;8.820;2023-01-08T04:44:03;96381.28;;;5.73;87.79
70968;BME280;58629;48.808;8.820;2023-01-08T04:46:29;96379.75;;;5.75;87.62
70968;BME280;58629;48.808;8.820;2023-01-08T04:48:54;96380.50;;;5.76;87.60
70968;BME280;58629;48.808;8.820;2023-01-08T04:51:19;96374.84;;;5.77;88.28
70968;BME280;58629;48.808;8.820;2023-01-08T04:53:46;96373.72;;;5.78;88.19
70968;BME280;58629;48.808;8.820;2023-01-08T04:56:11;96383.44;;;5.81;87.52
70968;BME280;58629;48.808;8.820;2023-01-08T04:58:37;96374.78;;;5.84;87.77
70968;BME280;58629;48.808;8.820;2023-01-08T05:01:19;96373.56;;;5.92;87.10
70968;BME280;58629;48.808;8.820;2023-01-08T05:03:45;96375.03;;;5.97;86.13
70968;BME280;58629;48.808;8.820;2023-01-08T05:06:10;96379.50;;;6.00;86.56
70968;BME280;58629;48.808;8.820;2023-01-08T05:08:35;96379.47;;;6.03;86.16
70968;BME280;58629;48.808;8.820;2023-01-08T05:11:01;96377.94;;;6.06;86.07
70968;BME280;58629;48.808;8.820;2023-01-08T05:13:27;96382.03;;;6.07;86.27
70968;BME280;58629;48.808;8.820;2023-01-08T05:15:53;96376.38;;;6.08;86.48
70968;BME280;58629;48.808;8.820;2023-01-08T05:18:18;96379.78;;;6.09;86.99
70968;BME280;58629;48.808;8.820;2023-01-08T05:20:44;96371.09;;;6.12;86.41
70968;BME280;58629;48.808;8.820;2023-01-08T05:23:09;96369.22;;;6.12;86.35
70968;BME280;58629;48.808;8.820;2023-01-08T05:25:34;96366.94;;;6.14;86.91
70968;BME280;58629;48.808;8.820;2023-01-08T05:28:00;96368.81;;;6.14;87.29
70968;BME280;58629;48.808;8.820;2023-01-08T05:30:25;96368.72;;;6.21;87.58
70968;BME280;58629;48.808;8.820;2023-01-08T05:32:50;96364.16;;;6.25;88.32
70968;BME280;58629;48.808;8.820;2023-01-08T05:35:16;96370.53;;;6.28;88.41
70968;BME280;58629;48.808;8.820;2023-01-08T05:37:41;96356.22;;;6.29;89.60
70968;BME280;58629;48.808;8.820;2023-01-08T05:40:07;96362.19;;;6.33;89.38
70968;BME280;58629;48.808;8.820;2023-01-08T05:42:33;96357.22;;;6.38;89.74
70968;BME280;58629;48.808;8.820;2023-01-08T05:44:59;96358.66;;;6.43;90.06
70968;BME280;58629;48.808;8.820;2023-01-08T05:47:28;96354.09;;;6.47;90.27
70968;BME280;58629;48.808;8.820;2023-01-08T05:49:53;96356.75;;;6.47;91.00
70968;BME280;58629;48.808;8.820;2023-01-08T05:52:18;96360.81;;;6.51;90.32
70968;BME280;58629;48.808;8.820;2023-01-08T05:54:44;96356.28;;;6.52;90.67
70968;BME280;58629;48.808;8.820;2023-01-08T05:57:09;96359.66;;;6.52;91.65
70968;BME280;58629;48.808;8.820;2023-01-08T05:59:34;96366.44;;;6.50;91.27
70968;BME280;58629;48.808;8.820;2023-01-08T06:01:59;96363.72;;;6.57;91.63
70968;BME280;58629;48.808;8.820;2023-01-08T06:04:25;96358.41;;;6.60;90.97
70968;BME280;58629;48.808;8.820;2023-01-08T06:06:50;96354.69;;;6.58;91.44
70968;BME280;58629;48.808;8.820;2023-01-08T06:09:15;96355.84;;;6.57;92.03
70968;BME280;58629;48.808;8.820;2023-01-08T06:11:41;96350.59;;;6.57;92.11
70968;BME280;58629;48.808;8.820;2023-01-08T06:14:06;96343.81;;;6.56;92.31
70968;BME280;58629;48.808;8.820;2023-01-08T06:16:31;96347.59;;;6.55;92.35
70968;BME280;58629;48.808;8.820;2023-01-08T06:18:56;96351.28;;;6.61;91.96
70968;BME280;58629;48.808;8.820;2023-01-08T06:21:22;96336.88;;;6.69;92.22
70968;BME280;58629;48.808;8.820;2023-01-08T06:23:47;96345.50;;;6.69;91.98
70968;BME280;58629;48.808;8.820;2023-01-08T06:26:12;96338.41;;;6.66;91.69
70968;BME280;58629;48.808;8.820;2023-01-08T06:28:37;96340.94;;;6.73;91.76
70968;BME280;58629;48.808;8.820;2023-01-08T06:31:03;96335.28;;;6.75;92.15
70968;BME280;58629;48.808;8.820;2023-01-08T06:33:30;96335.34;;;6.71;91.66
70968;BME280;58629;48.808;8.820;2023-01-08T06:35:59;96326.75;;;6.67;92.15
70968;BME280;58629;48.808;8.820;2023-01-08T06:38:25;96324.91;;;6.64;93.16
70968;BME280;58629;48.808;8.820;2023-01-08T06:40:50;96324.50;;;6.66;92.59
70968;BME280;58629;48.808;8.820;2023-01-08T06:43:15;96328.97;;;6.69;92.51
70968;BME280;58629;48.808;8.820;2023-01-08T06:45:41;96332.38;;;6.69;93.21
70968;BME280;58629;48.808;8.820;2023-01-08T06:48:07;96326.34;;;6.69;92.62
70968;BME280;58629;48.808;8.820;2023-01-08T06:50:33;96332.31;;;6.73;92.89
70968;BME280;58629;48.808;8.820;2023-01-08T06:52:59;96328.13;;;6.75;93.44
70968;BME280;58629;48.808;8.820;2023-01-08T06:55:25;96321.72;;;6.76;92.64
70968;BME280;58629;48.808;8.820;2023-01-08T06:57:54;96327.72;;;6.77;92.89
70968;BME280;58629;48.808;8.820;2023-01-08T07:00:20;96320.97;;;6.76;93.16
70968;BME280;58629;48.808;8.820;2023-01-08T07:02:47;96314.56;;;6.77;93.09
70968;BME280;58629;48.808;8.820;2023-01-08T07:05:12;96323.94;;;6.78;93.60
70968;BME280;58629;48.808;8.820;2023-01-08T07:07:38;96313.75;;;6.80;93.05
70968;BME280;58629;48.808;8.820;2023-01-08T07:10:03;96319.72;;;6.84;92.76
70968;BME280;58629;48.808;8.820;2023-01-08T07:12:29;96321.16;;;6.88;93.02
70968;BME280;58629;48.808;8.820;2023-01-08T07:14:54;96327.88;;;6.89;93.40
70968;BME280;58629;48.808;8.820;2023-01-08T07:17:19;96324.53;;;6.89;93.51
70968;BME280;58629;48.808;8.820;2023-01-08T07:19:44;96328.13;;;6.98;93.23
70968;BME280;58629;48.808;8.820;2023-01-08T07:22:10;96321.78;;;6.96;93.87
70968;BME280;58629;48.808;8.820;2023-01-08T07:24:35;96332.03;;;6.90;94.39
70968;BME280;58629;48.808;8.820;2023-01-08T07:27:00;96324.91;;;6.87;94.22
70968;BME280;58629;48.808;8.820;2023-01-08T07:29:25;96324.19;;;6.87;94.67
70968;BME280;58629;48.808;8.820;2023-01-08T07:31:51;96329.31;;;6.94;94.02
70968;BME280;58629;48.808;8.820;2023-01-08T07:34:17;96332.38;;;6.92;93.82
70968;BME280;58629;48.808;8.820;2023-01-08T07:36:42;96329.66;;;6.96;93.20
70968;BME280;58629;48.808;8.820;2023-01-08T07:39:07;96336.13;;;6.91;93.52
70968;BME280;58629;48.808;8.820;2023-01-08T07:41:32;96336.09;;;6.95;94.60
70968;BME280;58629;48.808;8.820;2023-01-08T07:43:58;96334.16;;;6.99;94.54
70968;BME280;58629;48.808;8.820;2023-01-08T07:46:23;96334.88;;;6.99;94.28
70968;BME280;58629;48.808;8.820;2023-01-08T07:48:48;96338.94;;;7.04;94.20
70968;BME280;58629;48.808;8.820;2023-01-08T07:51:13;96336.31;;;7.04;93.80
70968;BME280;58629;48.808;8.820;2023-01-08T07:53:39;96338.88;;;7.08;93.37
70968;BME280;58629;48.808;8.820;2023-01-08T07:56:08;96335.97;;;7.02;94.30
70968;BME280;58629;48.808;8.820;2023-01-08T07:58:35;96332.56;;;7.01;94.70
70968;BME280;58629;48.808;8.820;2023-01-08T08:01:01;96337.13;;;7.01;95.30
70968;BME280;58629;48.808;8.820;2023-01-08T08:03:26;96338.09;;;7.11;94.89
70968;BME280;58629;48.808;8.820;2023-01-08T08:05:52;96325.09;;;7.00;95.59
70968;BME280;58629;48.808;8.820;2023-01-08T08:08:17;96329.44;;;7.10;95.90
70968;BME280;58629;48.808;8.820;2023-01-08T08:10:43;96330.75;;;6.98;95.80
70968;BME280;58629;48.808;8.820;2023-01-08T08:13:09;96331.19;;;6.93;96.26
70968;BME280;58629;48.808;8.820;2023-01-08T08:15:35;96325.09;;;7.00;96.89
70968;BME280;58629;48.808;8.820;2023-01-08T08:18:01;96317.09;;;7.07;96.20
70968;BME280;58629;48.808;8.820;2023-01-08T08:20:27;96318.97;;;7.07;95.31
70968;BME280;58629;48.808;8.820;2023-01-08T08:22:59;96318.28;;;7.03;95.86
70968;BME280;58629;48.808;8.820;2023-01-08T08:25:25;96308.53;;;6.99;96.54
70968;BME280;58629;48.808;8.820;2023-01-08T08:27:50;96310.44;;;6.99;96.49
70968;BME280;58629;48.808;8.820;2023-01-08T08:30:16;96317.94;;;7.00;97.47
70968;BME280;58629;48.808;8.820;2023-01-08T08:32:41;96309.69;;;6.98;97.33
70968;BME280;58629;48.808;8.820;2023-01-08T08:35:06;96311.41;;;7.09;96.25
70968;BME280;58629;48.808;8.820;2023-01-08T08:37:32;96307.22;;;7.11;95.62
70968;BME280;58629;48.808;8.820;2023-01-08T08:39:57;96311.00;;;7.10;95.47
70968;BME280;58629;48.808;8.820;2023-01-08T08:42:22;96303.44;;;7.12;96.04
70968;BME280;58629;48.808;8.820;2023-01-08T08:44:47;96308.38;;;7.10;96.28
70968;BME280;58629;48.808;8.820;2023-01-08T08:47:13;96296.97;;;7.17;96.66
70968;BME280;58629;48.808;8.820;2023-01-08T08:49:38;96298.19;;;7.12;96.11
70968;BME280;58629;48.808;8.820;2023-01-08T08:52:04;96292.78;;;7.19;95.32
70968;BME280;58629;48.808;8.820;2023-01-08T08:54:29;96298.03;;;7.19;96.07
70968;BME280;58629;48.808;8.820;2023-01-08T08:56:54;96297.31;;;7.19;96.21
70968;BME280;58629;48.808;8.820;2023-01-08T08:59:20;96295.41;;;7.19;95.92
70968;BME280;58629;48.808;8.820;2023-01-08T09:01:45;96299.63;;;7.17;95.63
70968;BME280;58629;48.808;8.820;2023-01-08T09:04:10;96298.88;;;7.16;96.56
70968;BME280;58629;48.808;8.820;2023-01-08T09:06:36;96299.13;;;7.22;96.19
70968;BME280;58629;48.808;8.820;2023-01-08T09:09:01;96302.03;;;7.27;96.52
70968;BME280;58629;48.808;8.820;2023-01-08T09:11:26;96302.88;;;7.24;95.93
70968;BME280;58629;48.808;8.820;2023-01-08T09:13:52;96300.56;;;7.26;95.86
70968;BME280;58629;48.808;8.820;2023-01-08T09:16:17;96301.78;;;7.22;95.88
70968;BME280;58629;48.808;8.820;2023-01-08T09:18:42;96306.34;;;7.18;96.19
70968;BME280;58629;48.808;8.820;2023-01-08T09:21:08;96314.59;;;7.20;96.90
70968;BME280;58629;48.808;8.820;2023-01-08T09:23:34;96304.81;;;7.20;97.14
70968;BME280;58629;48.808;8.820;2023-01-08T09:26:00;96300.97;;;7.25;96.96
70968;BME280;58629;48.808;8.820;2023-01-08T09:28:26;96302.38;;;7.29;96.65
70968;BME280;58629;48.808;8.820;2023-01-08T09:30:51;96315.53;;;7.29;96.60
70968;BME280;58629;48.808;8.820;2023-01-08T09:33:17;96311.78;;;7.30;96.40
70968;BME280;58629;48.808;8.820;2023-01-08T09:35:42;96318.19;;;7.29;96.50
70968;BME280;58629;48.808;8.820;2023-01-08T09:38:08;96318.25;;;7.26;97.12
70968;BME280;58629;48.808;8.820;2023-01-08T09:40:40;96316.78;;;7.25;96.79
70968;BME280;58629;48.808;8.820;2023-01-08T09:43:07;96314.47;;;7.27;97.10
70968;BME280;58629;48.808;8.820;2023-01-08T09:45:39;96311.97;;;7.39;95.66
70968;BME280;58629;48.808;8.820;2023-01-08T09:48:10;96310.16;;;7.36;95.72
70968;BME280;58629;48.808;8.820;2023-01-08T09:50:37;96308.63;;;7.39;96.61
70968;BME280;58629;48.808;8.820;2023-01-08T09:53:02;96314.88;;;7.45;97.07
70968;BME280;58629;48.808;8.820;2023-01-08T09:55:30;96310.50;;;7.58;99.87
70968;BME280;58629;48.808;8.820;2023-01-08T09:57:58;96322.19;;;7.76;100.00
70968;BME280;58629;48.808;8.820;2023-01-08T10:00:28;96324.53;;;7.90;100.00
70968;BME280;58629;48.808;8.820;2023-01-08T10:02:54;96321.19;;;8.06;98.60
70968;BME280;58629;48.808;8.820;2023-01-08T10:05:20;96321.56;;;8.24;96.95
70968;BME280;58629;48.808;8.820;2023-01-08T10:07:46;96315.50;;;8.27;95.11
70968;BME280;58629;48.808;8.820;2023-01-08T10:10:25;96321.47;;;8.31;94.84
70968;BME280;58629;48.808;8.820;2023-01-08T10:12:52;96317.84;;;8.41;94.16
70968;BME280;58629;48.808;8.820;2023-01-08T10:15:19;96317.44;;;8.43;93.51
70968;BME280;58629;48.808;8.820;2023-01-08T10:17:50;96311.91;;;8.69;96.47
70968;BME280;58629;48.808;8.820;2023-01-08T10:20:23;96303.53;;;9.03;95.08
70968;BME280;58629;48.808;8.820;2023-01-08T10:22:49;96312.47;;;9.38;93.13
70968;BME280;58629;48.808;8.820;2023-01-08T10:25:20;96309.31;;;9.72;92.30
70968;BME280;58629;48.808;8.820;2023-01-08T10:27:49;96298.88;;;9.93;89.78
70968;BME280;58629;48.808;8.820;2023-01-08T10:30:20;96293.41;;;10.13;89.83
70968;BME280;58629;48.808;8.820;2023-01-08T10:32:50;96288.47;;;10.27;87.12
70968;BME280;58629;48.808;8.820;2023-01-08T10:35:18;96287.81;;;10.48;86.03
70968;BME280;58629;48.808;8.820;2023-01-08T10:37:44;96278.91;;;10.55;81.64
70968;BME280;58629;48.808;8.820;2023-01-08T10:40:37;96279.22;;;10.57;82.09
70968;BME280;58629;48.808;8.820;2023-01-08T10:48:33;96274.13;;;10.75;81.06
70968;BME280;58629;48.808;8.820;2023-01-08T10:51:27;96273.75;;;10.86;82.24
70968;BME280;58629;48.808;8.820;2023-01-08T10:53:55;96274.28;;;10.93;82.58
70968;BME280;58629;48.808;8.820;2023-01-08T10:56:24;96271.09;;;10.98;82.28
70968;BME280;58629;48.808;8.820;2023-01-08T10:58:50;96264.50;;;11.03;82.38
70968;BME280;58629;48.808;8.820;2023-01-08T11:01:26;96265.00;;;11.10;81.15
70968;BME280;58629;48.808;8.820;2023-01-08T11:04:00;96265.19;;;11.16;81.25
70968;BME280;58629;48.808;8.820;2023-01-08T11:06:27;96264.53;;;11.24;81.28
70968;BME280;58629;48.808;8.820;2023-01-08T11:08:56;96251.03;;;11.31;80.95
70968;BME280;58629;48.808;8.820;2023-01-08T11:11:22;96244.00;;;11.38;79.59
70968;BME280;58629;48.808;8.820;2023-01-08T11:13:59;96232.84;;;11.43;78.65
70968;BME280;58629;48.808;8.820;2023-01-08T11:16:32;96224.59;;;11.41;78.87
70968;BME280;58629;48.808;8.820;2023-01-08T11:18:59;96228.56;;;11.45;78.88
70968;BME280;58629;48.808;8.820;2023-01-08T11:21:27;96220.38;;;11.52;78.68
70968;BME280;58629;48.808;8.820;2023-01-08T11:24:09;96218.66;;;11.58;77.80
70968;BME280;58629;48.808;8.820;2023-01-08T11:26:36;96213.84;;;11.66;78.02
70968;BME280;58629;48.808;8.820;2023-01-08T11:29:14;96210.81;;;11.76;77.37
70968;BME280;58629;48.808;8.820;2023-01-08T11:34:23;96209.16;;;11.70;76.84
70968;BME280;58629;48.808;8.820;2023-01-08T11:36:58;96204.94;;;11.81;76.43
70968;BME280;58629;48.808;8.820;2023-01-08T11:39:26;96198.31;;;11.86;76.17
70968;BME280;58629;48.808;8.820;2023-01-08T11:42:04;96201.91;;;11.92;75.40
70968;BME280;58629;48.808;8.820;2023-01-08T11:44:41;96195.09;;;11.91;75.76
70968;BME280;58629;48.808;8.820;2023-01-08T11:47:17;96197.75;;;11.91;75.72
70968;BME280;58629;48.808;8.820;2023-01-08T11:58:15;96167.41;;;11.30;76.25
70968;BME280;58629;48.808;8.820;2023-01-08T12:00:57;96162.59;;;11.16;78.27
70968;BME280;58629;48.808;8.820;2023-01-08T12:06:15;96155.09;;;10.93;78.90
70968;BME280;58629;48.808;8.820;2023-01-08T12:11:24;96135.19;;;10.67;78.48
70968;BME280;58629;48.808;8.820;2023-01-08T12:16:54;96137.13;;;10.54;79.16
70968;BME280;58629;48.808;8.820;2023-01-08T12:19:24;96138.13;;;10.48;79.59
70968;BME280;58629;48.808;8.820;2023-01-08T12:22:14;96136.34;;;10.32;80.31
70968;BME280;58629;48.808;8.820;2023-01-08T12:25:20;96137.41;;;10.34;81.74
70968;BME280;58629;48.808;8.820;2023-01-08T12:28:28;96137.34;;;10.60;81.17
70968;BME280;58629;48.808;8.820;2023-01-08T12:31:06;96140.09;;;10.78;79.04
70968;BME280;58629;48.808;8.820;2023-01-08T12:33:38;96145.81;;;10.55;77.60
70968;BME280;58629;48.808;8.820;2023-01-08T12:36:13;96153.91;;;10.73;78.95
70968;BME280;58629;48.808;8.820;2023-01-08T12:38:42;96150.31;;;10.67;78.62
70968;BME280;58629;48.808;8.820;2023-01-08T12:41:11;96149.03;;;10.71;77.25
70968;BME280;58629;48.808;8.820;2023-01-08T12:43:50;96140.31;;;10.83;78.96
70968;BME280;58629;48.808;8.820;2023-01-08T12:46:17;96136.59;;;10.81;78.45
70968;BME280;58629;48.808;8.820;2023-01-08T12:48:45;96135.06;;;10.71;77.31
70968;BME280;58629;48.808;8.820;2023-01-08T12:51:19;96135.16;;;10.45;76.90
70968;BME280;58629;48.808;8.820;2023-01-08T12:59:52;96126.31;;;10.27;77.05
70968;BME280;58629;48.808;8.820;2023-01-08T13:02:51;96122.69;;;10.33;79.46
70968;BME280;58629;48.808;8.820;2023-01-08T13:07:46;96103.31;;;10.36;78.96
70968;BME280;58629;48.808;8.820;2023-01-08T13:12:57;96092.13;;;10.76;78.04
70968;BME280;58629;48.808;8.820;2023-01-08T13:15:24;96091.75;;;10.86;76.92
70968;BME280;58629;48.808;8.820;2023-01-08T13:17:53;96096.88;;;10.81;75.05
70968;BME280;58629;48.808;8.820;2023-01-08T13:20:27;96099.69;;;10.86;76.71
70968;BME280;58629;48.808;8.820;2023-01-08T13:23:01;96097.97;;;10.92;76.64
70968;BME280;58629;48.808;8.820;2023-01-08T13:25:37;96092.25;;;10.94;76.21
70968;BME280;58629;48.808;8.820;2023-01-08T13:28:24;96085.09;;;10.82;76.65
70968;BME280;58629;48.808;8.820;2023-01-08T13:30:52;96070.84;;;10.79;75.90
70968;BME280;58629;48.808;8.820;2023-01-08T13:38:38;96069.16;;;10.51;76.24
70968;BME280;58629;48.808;8.820;2023-01-08T13:41:04;96057.94;;;10.25;77.24
70968;BME280;58629;48.808;8.820;2023-01-08T13:43:38;96063.50;;;10.06;78.38
70968;BME280;58629;48.808;8.820;2023-01-08T13:46:07;96065.50;;;10.02;79.23
70968;BME280;58629;48.808;8.820;2023-01-08T13:48:46;96061.81;;;10.12;79.22
70968;BME280;58629;48.808;8.820;2023-01-08T13:51:37;96060.72;;;10.09;78.53
70968;BME280;58629;48.808;8.820;2023-01-08T13:54:14;96063.28;;;10.00;79.27
70968;BME280;58629;48.808;8.820;2023-01-08T13:56:43;96048.38;;;9.94;79.82
70968;BME280;58629;48.808;8.820;2023-01-08T13:59:33;96039.41;;;9.91;80.20
70968;BME280;58629;48.808;8.820;2023-01-08T14:02:16;96046.19;;;9.92;80.54